createdAt,value
2022-11-16T00:00:19.821Z,78.32
2022-11-16T00:02:52.848Z,77.47
2022-11-16T00:05:28.290Z,73.10
2022-11-16T00:07:59.187Z,73.22
2022-11-16T00:10:26.755Z,74.20
2022-11-16T00:12:54.556Z,73.53
2022-11-16T00:15:24.153Z,75.22
2022-11-16T00:17:53.967Z,72.82
2022-11-16T00:20:28.654Z,71.65
2022-11-16T00:22:59.424Z,66.43
2022-11-16T00:25:26.962Z,66.68
2022-11-16T00:27:58.043Z,65.03
2022-11-16T00:30:30.703Z,64.57
2022-11-16T00:33:05.032Z,65.82
2022-11-16T00:35:45.190Z,70.32
2022-11-16T00:38:14.244Z,64.78
2022-11-16T00:40:46.403Z,65.85
2022-11-16T00:43:15.779Z,64.72
2022-11-16T00:45:46.858Z,66.63
2022-11-16T00:48:15.075Z,66.32
2022-11-16T00:50:46.122Z,70.70
2022-11-16T00:53:21.629Z,66.30
2022-11-16T00:55:55.506Z,68.25
2022-11-16T00:58:26.778Z,67.70
2022-11-16T01:01:13.742Z,49.97
2022-11-16T01:03:44.805Z,69.35
2022-11-16T01:06:16.507Z,68.82
2022-11-16T01:08:47.654Z,74.13
2022-11-16T01:11:36.578Z,90.72
2022-11-16T01:14:06.853Z,80.22
2022-11-16T01:16:38.178Z,65.38
2022-11-16T01:19:08.697Z,63.63
2022-11-16T01:21:38.205Z,63.40
2022-11-16T01:24:12.072Z,62.92
2022-11-16T01:26:39.844Z,64.15
2022-11-16T01:29:11.437Z,61.45
2022-11-16T01:31:43.863Z,62.33
2022-11-16T01:34:14.419Z,61.75
2022-11-16T01:36:44.302Z,58.20
2022-11-16T01:39:16.373Z,58.55
2022-11-16T01:42:06.413Z,59.00
2022-11-16T01:44:33.828Z,57.35
2022-11-16T01:49:52.182Z,53.85
2022-11-16T01:55:20.955Z,57.33
2022-11-16T01:58:29.555Z,55.42
2022-11-16T02:01:06.497Z,56.55
2022-11-16T02:03:45.275Z,53.65
2022-11-16T02:06:30.125Z,52.50
2022-11-16T02:09:46.484Z,51.10
2022-11-16T02:12:52.457Z,49.00
2022-11-16T02:16:25.829Z,47.60
2022-11-16T02:19:13.605Z,48.00
2022-11-16T02:21:59.467Z,47.58
2022-11-16T02:24:58.064Z,47.80
2022-11-16T02:27:52.482Z,46.40
2022-11-16T02:30:25.983Z,32.43
2022-11-16T02:33:07.092Z,46.47
2022-11-16T02:36:08.650Z,50.60
2022-11-16T02:38:42.215Z,49.47
2022-11-16T02:41:31.456Z,38.17
2022-11-16T02:44:25.046Z,47.17
2022-11-16T02:47:01.296Z,49.58
2022-11-16T02:49:35.893Z,49.80
2022-11-16T02:52:08.363Z,51.92
2022-11-16T02:54:35.919Z,51.33
2022-11-16T02:57:03.881Z,52.33
2022-11-16T03:00:04.787Z,52.42
2022-11-16T03:03:11.724Z,50.88
2022-11-16T03:05:53.635Z,51.83
2022-11-16T03:08:42.399Z,48.17
2022-11-16T03:11:35.669Z,48.65
2022-11-16T03:14:21.642Z,50.53
2022-11-16T03:16:58.711Z,50.17
2022-11-16T03:20:11.345Z,47.72
2022-11-16T03:22:52.419Z,47.60
2022-11-16T03:25:25.885Z,49.25
2022-11-16T03:28:12.179Z,45.78
2022-11-16T03:31:06.299Z,45.55
2022-11-16T03:33:43.017Z,46.88
2022-11-16T03:36:49.298Z,46.25
2022-11-16T03:39:25.889Z,46.58
2022-11-16T03:42:07.663Z,46.47
2022-11-16T03:44:35.887Z,51.25
2022-11-16T03:47:07.800Z,47.63
2022-11-16T03:49:36.210Z,45.15
2022-11-16T03:52:05.487Z,46.97
2022-11-16T03:54:39.422Z,47.10
2022-11-16T03:57:07.042Z,47.15
2022-11-16T03:59:37.750Z,47.28
2022-11-16T04:02:08.013Z,47.17
2022-11-16T04:04:56.714Z,46.80
2022-11-16T04:07:46.462Z,45.10
2022-11-16T04:10:35.430Z,44.70
2022-11-16T04:13:27.629Z,42.83
2022-11-16T04:16:17.784Z,45.58
2022-11-16T04:19:06.667Z,45.47
2022-11-16T04:22:05.315Z,45.97
2022-11-16T04:24:43.241Z,47.00
2022-11-16T04:27:35.506Z,42.60
2022-11-16T04:30:07.475Z,47.97
2022-11-16T04:32:57.467Z,47.28
2022-11-16T04:35:45.426Z,53.85
2022-11-16T04:38:17.718Z,52.35
2022-11-16T04:40:50.542Z,51.70
2022-11-16T04:43:43.660Z,46.20
2022-11-16T04:46:32.863Z,43.83
2022-11-16T04:49:06.569Z,43.55
2022-11-16T04:51:35.700Z,46.20
2022-11-16T04:54:04.015Z,42.75
2022-11-16T04:56:35.660Z,42.65
2022-11-16T04:59:11.068Z,43.03
2022-11-16T05:02:02.505Z,31.73
2022-11-16T05:04:59.402Z,43.22
2022-11-16T05:07:31.080Z,42.28
2022-11-16T05:10:15.917Z,43.00
2022-11-16T05:12:46.882Z,42.85
2022-11-16T05:15:19.499Z,44.00
2022-11-16T05:17:53.887Z,42.92
2022-11-16T05:20:46.743Z,43.03
2022-11-16T05:23:35.689Z,42.85
2022-11-16T05:26:10.033Z,43.47
2022-11-16T05:28:41.641Z,43.33
2022-11-16T05:31:13.194Z,43.90
2022-11-16T05:33:42.214Z,44.97
2022-11-16T05:36:15.768Z,45.47
2022-11-16T05:38:43.274Z,47.47
2022-11-16T05:41:17.283Z,46.50
2022-11-16T05:43:48.123Z,47.17
2022-11-16T05:46:23.072Z,47.00
2022-11-16T05:48:51.586Z,46.80
2022-11-16T05:51:24.400Z,45.58
2022-11-16T05:53:56.537Z,44.65
2022-11-16T05:56:24.868Z,45.42
2022-11-16T05:58:58.418Z,44.55
2022-11-16T06:01:29.959Z,46.30
2022-11-16T06:04:03.381Z,51.13
2022-11-16T06:06:37.127Z,50.63
2022-11-16T06:09:13.459Z,51.00
2022-11-16T06:11:43.666Z,47.78
2022-11-16T06:14:14.493Z,45.72
2022-11-16T06:16:45.835Z,40.65
2022-11-16T06:19:15.666Z,40.25
2022-11-16T06:21:43.193Z,41.97
2022-11-16T06:26:49.403Z,40.97
2022-11-16T06:29:17.169Z,41.55
2022-11-16T06:31:47.440Z,41.28
2022-11-16T06:34:16.250Z,42.95
2022-11-16T06:36:44.516Z,42.17
2022-11-16T06:39:18.517Z,46.70
2022-11-16T06:41:49.443Z,45.45
2022-11-16T06:44:18.425Z,48.35
2022-11-16T06:46:58.793Z,47.25
2022-11-16T06:49:28.830Z,44.10
2022-11-16T06:52:01.694Z,45.22
2022-11-16T06:54:31.782Z,43.20
2022-11-16T06:57:04.758Z,44.47
2022-11-16T06:59:38.170Z,44.78
2022-11-16T07:02:09.315Z,46.47
2022-11-16T07:04:46.584Z,45.97
2022-11-16T07:07:18.503Z,44.65
2022-11-16T07:09:46.400Z,43.53
2022-11-16T07:12:17.316Z,42.28
2022-11-16T07:14:46.168Z,41.53
2022-11-16T07:17:16.303Z,42.78
2022-11-16T07:19:47.468Z,41.83
2022-11-16T07:22:20.713Z,42.75
2022-11-16T07:24:53.997Z,40.35
2022-11-16T07:27:23.508Z,40.15
2022-11-16T07:29:56.770Z,40.25
2022-11-16T07:32:54.607Z,40.88
2022-11-16T07:35:45.430Z,40.45
2022-11-16T07:38:17.875Z,41.20
2022-11-16T07:40:50.605Z,40.78
2022-11-16T07:43:25.692Z,43.00
2022-11-16T07:49:24.972Z,40.10
2022-11-16T07:51:58.490Z,40.20
2022-11-16T07:54:47.200Z,39.42
2022-11-16T07:57:20.842Z,44.53
2022-11-16T08:00:00.897Z,53.13
2022-11-16T08:02:53.243Z,45.40
2022-11-16T08:05:28.758Z,44.75
2022-11-16T08:07:59.940Z,45.80
2022-11-16T08:10:31.436Z,42.90
2022-11-16T08:13:02.993Z,43.70
2022-11-16T08:15:32.812Z,47.28
2022-11-16T08:18:05.608Z,45.42
2022-11-16T08:20:38.751Z,44.10
2022-11-16T08:23:09.604Z,47.88
2022-11-16T08:25:42.456Z,50.72
2022-11-16T08:28:09.647Z,50.72
2022-11-16T08:30:48.428Z,55.85
2022-11-16T08:36:30.149Z,56.42
2022-11-16T08:38:58.533Z,54.08
2022-11-16T08:41:34.132Z,53.92
2022-11-16T08:44:07.906Z,53.17
2022-11-16T08:46:41.038Z,52.53
2022-11-16T08:49:32.539Z,57.10
2022-11-16T08:52:02.859Z,58.05
2022-11-16T08:54:33.849Z,64.88
2022-11-16T08:57:05.098Z,68.32
2022-11-16T09:02:16.647Z,41.40
2022-11-16T09:04:47.796Z,51.90
2022-11-16T09:07:15.814Z,50.55
2022-11-16T09:09:44.185Z,52.05
2022-11-16T09:12:13.552Z,50.72
2022-11-16T09:14:44.126Z,51.95
2022-11-16T09:17:16.509Z,54.22
2022-11-16T09:19:49.953Z,52.60
2022-11-16T09:22:20.191Z,52.67
2022-11-16T09:24:49.877Z,50.08
2022-11-16T09:27:22.865Z,49.15
2022-11-16T09:29:52.681Z,46.35
2022-11-16T09:32:22.819Z,41.95
2022-11-16T09:34:50.760Z,44.33
2022-11-16T09:37:21.527Z,42.40
2022-11-16T09:39:52.761Z,45.70
2022-11-16T09:42:44.957Z,44.53
2022-11-16T09:45:46.248Z,45.20
2022-11-16T09:48:16.904Z,45.95
2022-11-16T09:51:11.055Z,47.03
2022-11-16T09:53:48.537Z,45.47
2022-11-16T09:56:26.150Z,49.08
2022-11-16T09:59:11.090Z,47.75
2022-11-16T10:01:58.528Z,47.47
2022-11-16T10:04:58.506Z,45.35
2022-11-16T10:07:54.896Z,45.40
2022-11-16T10:11:09.549Z,47.80
2022-11-16T10:14:14.846Z,42.60
2022-11-16T10:17:02.275Z,44.00
2022-11-16T10:19:54.637Z,48.50
2022-11-16T10:22:56.293Z,45.15
2022-11-16T10:25:48.718Z,50.22
2022-11-16T10:29:09.293Z,51.25
2022-11-16T10:32:11.076Z,53.60
2022-11-16T10:35:21.461Z,53.47
2022-11-16T10:37:51.785Z,55.40
2022-11-16T10:40:40.987Z,54.95
2022-11-16T10:43:30.549Z,57.03
2022-11-16T10:46:37.149Z,51.58
2022-11-16T10:49:29.367Z,49.47
2022-11-16T10:52:00.254Z,42.33
2022-11-16T10:54:28.486Z,41.85
2022-11-16T10:57:18.210Z,37.60
2022-11-16T10:59:56.519Z,34.95
2022-11-16T11:02:41.560Z,31.75
2022-11-16T11:05:25.942Z,29.42
2022-11-16T11:08:14.041Z,28.30
2022-11-16T11:10:46.624Z,25.05
2022-11-16T11:13:29.757Z,25.70
2022-11-16T11:16:27.137Z,22.83
2022-11-16T11:18:56.723Z,22.35
2022-11-16T11:21:31.136Z,25.02
2022-11-16T11:27:08.261Z,17.65
2022-11-16T11:29:41.342Z,15.32
2022-11-16T11:32:24.511Z,12.98
2022-11-16T11:34:58.972Z,12.93
2022-11-16T11:37:41.650Z,10.35
2022-11-16T11:40:29.911Z,8.93
2022-11-16T11:43:10.518Z,9.07
2022-11-16T11:46:08.922Z,15.80
2022-11-16T11:48:55.509Z,11.82
2022-11-16T11:51:35.130Z,8.10
2022-11-16T11:54:08.113Z,6.93
2022-11-16T11:56:36.869Z,6.03
2022-11-16T11:59:08.086Z,6.53
2022-11-16T12:01:51.234Z,5.47
2022-11-16T12:04:43.140Z,6.15
2022-11-16T12:07:24.919Z,6.05
2022-11-16T12:10:03.240Z,5.25
2022-11-16T12:13:11.339Z,5.55
2022-11-16T12:16:00.623Z,5.38
2022-11-16T12:18:49.137Z,5.20
2022-11-16T12:21:54.023Z,5.32
2022-11-16T12:25:05.337Z,4.80
2022-11-16T12:28:15.640Z,6.35
2022-11-16T12:31:10.583Z,6.15
2022-11-16T13:11:39.797Z,3.50
2022-11-16T13:14:33.495Z,9.40
2022-11-16T13:17:06.780Z,10.50
2022-11-16T13:19:48.259Z,3.50
2022-11-16T13:22:28.421Z,4.55
2022-11-16T13:25:38.757Z,4.65
2022-11-16T13:28:17.871Z,6.50
2022-11-16T13:31:26.032Z,6.68
2022-11-16T13:34:19.391Z,3.50
2022-11-16T13:36:50.470Z,3.25
2022-11-16T13:40:07.251Z,5.25
2022-11-16T13:42:46.352Z,6.47
2022-11-16T13:45:29.214Z,10.93
2022-11-16T13:48:03.338Z,10.93
2022-11-16T13:50:38.351Z,6.30
2022-11-16T13:56:13.601Z,17.58
2022-11-16T13:58:57.666Z,59.72
2022-11-16T14:01:29.722Z,38.72
2022-11-16T14:04:34.539Z,46.65
2022-11-16T14:07:33.565Z,54.53
2022-11-16T14:10:03.902Z,45.78
2022-11-16T14:12:54.441Z,41.85
2022-11-16T14:15:28.688Z,28.48
2022-11-16T14:18:23.490Z,20.90
2022-11-16T14:21:22.177Z,14.77
2022-11-16T14:24:23.527Z,14.88
2022-11-16T14:27:02.965Z,35.35
2022-11-16T14:29:56.297Z,28.23
2022-11-16T14:32:54.784Z,36.23
2022-11-16T14:35:39.667Z,26.02
2022-11-16T14:40:48.571Z,14.20
2022-11-16T14:43:23.655Z,11.45
2022-11-16T14:46:11.761Z,18.40
2022-11-16T14:48:48.113Z,10.35
2022-11-16T14:51:30.148Z,12.75
2022-11-16T14:54:27.586Z,10.13
2022-11-16T14:57:11.699Z,9.70
2022-11-16T14:59:43.102Z,9.30
2022-11-16T15:02:26.437Z,8.55
2022-11-16T15:04:57.425Z,8.05
2022-11-16T15:07:28.286Z,7.47
2022-11-16T15:10:02.389Z,6.50
2022-11-16T15:12:42.637Z,7.63
2022-11-16T15:15:10.611Z,6.90
2022-11-16T15:17:45.014Z,6.70
2022-11-16T15:20:24.841Z,6.60
2022-11-16T15:22:58.414Z,5.82
2022-11-16T15:25:31.464Z,6.18
2022-11-16T15:28:22.990Z,5.80
2022-11-16T15:33:46.602Z,5.97
2022-11-16T15:36:37.921Z,5.97
2022-11-16T15:39:16.307Z,9.80
2022-11-16T15:41:49.033Z,11.40
2022-11-16T15:44:23.745Z,10.65
2022-11-16T15:46:58.639Z,7.68
2022-11-16T15:49:52.975Z,6.13
2022-11-16T15:53:01.752Z,9.35
2022-11-16T15:55:57.429Z,8.95
2022-11-16T15:58:34.014Z,10.35
2022-11-16T16:01:07.128Z,8.98
2022-11-16T16:03:36.661Z,8.20
2022-11-16T16:06:08.879Z,9.07
2022-11-16T16:08:42.397Z,9.48
2022-11-16T16:13:45.951Z,10.07
2022-11-16T16:16:52.197Z,11.15
2022-11-16T16:19:38.481Z,13.50
2022-11-16T16:22:14.374Z,11.82
2022-11-16T16:24:49.131Z,9.48
2022-11-16T16:27:24.655Z,10.20
2022-11-16T16:30:04.929Z,10.05
2022-11-16T16:32:35.612Z,10.65
2022-11-16T16:35:09.833Z,12.77
2022-11-16T16:37:41.487Z,11.85
2022-11-16T16:40:12.318Z,9.57
2022-11-16T16:42:46.377Z,11.55
2022-11-16T16:45:28.785Z,12.93
2022-11-16T16:47:58.131Z,12.77
2022-11-16T16:50:26.792Z,12.07
2022-11-16T16:52:57.572Z,10.48
2022-11-16T16:55:27.876Z,10.40
2022-11-16T16:58:02.442Z,10.55
2022-11-16T17:00:32.174Z,10.27
2022-11-16T17:03:05.209Z,10.07
2022-11-16T17:05:37.684Z,8.63
2022-11-16T17:08:05.958Z,9.10
2022-11-16T17:10:39.818Z,8.23
2022-11-16T17:13:13.925Z,8.57
2022-11-16T17:15:43.830Z,8.88
2022-11-16T17:18:12.093Z,7.70
2022-11-16T17:20:45.616Z,8.70
2022-11-16T17:23:21.498Z,9.00
2022-11-16T17:25:57.671Z,9.77
2022-11-16T17:28:26.381Z,9.32
2022-11-16T17:31:00.751Z,8.43
2022-11-16T17:33:34.656Z,8.35
2022-11-16T17:36:21.925Z,8.18
2022-11-16T17:38:53.370Z,7.68
2022-11-16T17:41:24.341Z,7.32
2022-11-16T17:43:53.728Z,8.02
2022-11-16T17:46:29.214Z,7.20
2022-11-16T17:51:33.672Z,8.25
2022-11-16T17:54:04.540Z,7.70
2022-11-16T17:56:34.756Z,8.38
2022-11-16T17:59:02.098Z,7.72
2022-11-16T18:01:32.502Z,9.25
2022-11-16T18:04:05.117Z,7.55
2022-11-16T18:06:35.497Z,8.20
2022-11-16T18:09:06.263Z,7.90
2022-11-16T18:11:37.035Z,6.95
2022-11-16T18:14:08.507Z,8.40
2022-11-16T18:16:38.304Z,7.95
2022-11-16T18:19:07.172Z,7.80
2022-11-16T18:21:43.759Z,7.15
2022-11-16T18:24:15.565Z,9.35
2022-11-16T18:26:43.061Z,7.00
2022-11-16T18:29:18.685Z,6.90
2022-11-16T18:31:46.904Z,8.10
2022-11-16T18:34:20.190Z,6.38
2022-11-16T18:36:52.619Z,7.40
2022-11-16T18:39:22.272Z,9.45
2022-11-16T18:41:58.611Z,9.90
2022-11-16T18:44:25.951Z,5.25
2022-11-16T18:46:56.233Z,8.07
2022-11-16T18:49:29.148Z,7.55
2022-11-16T18:52:00.813Z,6.72
2022-11-16T18:54:31.107Z,7.05
2022-11-16T18:56:59.181Z,7.43
2022-11-16T18:59:30.300Z,7.20
2022-11-16T19:01:58.939Z,6.57
2022-11-16T19:04:29.202Z,7.03
2022-11-16T19:06:58.038Z,8.10
2022-11-16T19:09:26.585Z,9.68
2022-11-16T19:12:00.691Z,11.75
2022-11-16T19:14:32.276Z,9.43
2022-11-16T19:17:01.949Z,9.60
2022-11-16T19:19:34.998Z,10.27
2022-11-16T19:22:05.352Z,9.05
2022-11-16T19:24:36.439Z,8.18
2022-11-16T19:27:05.247Z,8.65
2022-11-16T19:29:34.262Z,8.90
2022-11-16T19:32:06.477Z,8.70
2022-11-16T19:34:38.598Z,9.75
2022-11-16T19:37:08.392Z,10.35
2022-11-16T19:39:41.642Z,9.82
2022-11-16T19:42:12.690Z,9.52
2022-11-16T19:44:41.492Z,9.60
2022-11-16T19:47:10.886Z,8.40
2022-11-16T19:49:41.381Z,9.90
2022-11-16T19:52:12.968Z,7.28
2022-11-16T19:54:44.506Z,8.10
2022-11-16T19:57:19.724Z,6.63
2022-11-16T19:59:48.733Z,6.35
2022-11-16T20:02:18.454Z,6.30
2022-11-16T20:04:48.577Z,5.25
2022-11-16T20:07:21.296Z,4.95
2022-11-16T20:09:53.715Z,4.93
2022-11-16T20:12:24.770Z,6.07
2022-11-16T20:14:56.153Z,6.20
2022-11-16T20:17:26.558Z,9.75
2022-11-16T20:19:56.991Z,8.82
2022-11-16T20:22:27.670Z,5.97
2022-11-16T20:24:58.501Z,10.20
2022-11-16T20:27:27.612Z,10.80
2022-11-16T20:30:00.977Z,13.63
2022-11-16T20:33:00.120Z,8.85
2022-11-16T20:35:31.791Z,9.85
2022-11-16T20:38:01.600Z,8.35
2022-11-16T20:40:31.946Z,9.02
2022-11-16T20:43:02.770Z,8.30
2022-11-16T20:45:36.696Z,7.15
2022-11-16T20:48:06.845Z,6.53
2022-11-16T20:50:38.144Z,8.13
2022-11-16T20:53:06.054Z,12.10
2022-11-16T20:55:35.616Z,7.20
2022-11-16T20:58:08.686Z,8.52
2022-11-16T21:00:36.275Z,12.80
2022-11-16T21:03:10.425Z,11.18
2022-11-16T21:05:45.693Z,7.45
2022-11-16T21:08:16.768Z,7.05
2022-11-16T21:10:45.527Z,7.78
2022-11-16T21:13:41.029Z,7.47
2022-11-16T21:16:14.039Z,6.22
2022-11-16T21:18:43.249Z,8.02
2022-11-16T21:21:13.348Z,8.50
2022-11-16T21:23:56.611Z,8.23
2022-11-16T21:26:33.377Z,13.38
2022-11-16T21:29:02.629Z,9.40
2022-11-16T21:31:32.876Z,9.15
2022-11-16T21:34:07.722Z,11.00
2022-11-16T21:39:04.157Z,10.48
2022-11-16T21:41:37.238Z,22.67
2022-11-16T21:44:08.761Z,14.43
2022-11-16T21:46:38.628Z,10.93
2022-11-16T21:49:10.645Z,9.85
2022-11-16T21:51:43.779Z,10.07
2022-11-16T21:54:13.882Z,12.40
2022-11-16T21:56:43.502Z,16.90
2022-11-16T21:59:13.764Z,19.40
2022-11-16T22:02:02.862Z,11.85
2022-11-16T22:04:52.851Z,11.40
2022-11-16T22:07:34.070Z,13.30
2022-11-16T22:10:07.441Z,12.07
2022-11-16T22:12:37.596Z,19.63
2022-11-16T22:15:21.774Z,16.40
2022-11-16T22:17:55.797Z,17.70
2022-11-16T22:20:27.226Z,20.80
2022-11-16T22:22:58.354Z,18.25
2022-11-16T22:25:27.567Z,13.55
2022-11-16T22:28:19.667Z,11.70
2022-11-16T22:30:52.093Z,14.00
2022-11-16T22:35:50.267Z,29.33
2022-11-16T22:38:20.509Z,26.70
2022-11-16T22:40:56.842Z,16.02
2022-11-16T22:43:33.019Z,19.08
2022-11-16T22:46:09.665Z,20.85
2022-11-16T22:48:41.493Z,23.88
2022-11-16T22:51:31.387Z,17.80
2022-11-16T22:54:08.854Z,15.30
2022-11-16T22:56:39.754Z,15.13
2022-11-16T22:59:13.299Z,17.27
2022-11-16T23:01:44.449Z,16.17
2022-11-16T23:04:12.311Z,12.63
2022-11-16T23:06:43.976Z,11.25
2022-11-16T23:09:11.448Z,12.15
2022-11-16T23:11:59.725Z,11.63
2022-11-16T23:14:49.261Z,11.80
2022-11-16T23:17:20.179Z,13.13
2022-11-16T23:20:08.712Z,14.50
2022-11-16T23:23:06.312Z,14.90
2022-11-16T23:25:55.708Z,15.73
2022-11-16T23:28:25.660Z,16.02
2022-11-16T23:30:53.220Z,16.15
2022-11-16T23:33:48.331Z,16.02
2022-11-16T23:38:49.923Z,18.00
2022-11-16T23:41:40.043Z,18.45
2022-11-16T23:44:07.654Z,18.27
2022-11-16T23:46:36.044Z,23.02
2022-11-16T23:49:05.863Z,18.42
2022-11-16T23:51:36.759Z,21.27
2022-11-16T23:54:07.863Z,23.48
2022-11-16T23:56:37.789Z,20.70
2022-11-16T23:59:08.769Z,21.02
